Time;durP1;ratioP1;P1;durP2;ratioP2;P2;SDS_P1;SDS_P2;PMS_P1;PMS_P2;Temp;Humidity;BMP_temperature;BMP_pressure;BME280_temperature;BME280_humidity;BME280_pressure;Samples;Min_cycle;Max_cycle;Signal;HPM_P1;HPM_P2
2023/04/29 00:01:24;;;;;;;8.33;5.57;;;;;;;7.50;69.84;97187.13;5109397;28;20217;-70
2023/04/29 00:03:52;;;;;;;7.97;5.37;;;;;;;7.37;70.71;97197.00;5108951;28;20721;-69
2023/04/29 00:06:20;;;;;;;6.53;4.97;;;;;;;7.30;69.63;97184.34;5109201;28;20249;-69
2023/04/29 00:08:47;;;;;;;7.03;5.37;;;;;;;7.29;70.76;97188.63;5109118;28;20666;-70
2023/04/29 00:11:15;;;;;;;6.87;5.53;;;;;;;7.53;71.07;97187.03;5109126;28;20181;-70
2023/04/29 00:13:42;;;;;;;7.97;5.73;;;;;;;7.70;70.22;97183.94;5108837;28;20202;-67
2023/04/29 00:16:09;;;;;;;9.80;5.83;;;;;;;7.64;69.42;97187.56;5108686;28;20620;-69
2023/04/29 00:18:36;;;;;;;9.53;6.03;;;;;;;7.60;70.64;97185.97;5108740;28;20206;-71
2023/04/29 00:21:07;;;;;;;8.73;5.43;;;;;;;7.48;70.81;97188.09;5108632;28;20591;-70
2023/04/29 00:23:34;;;;;;;7.67;5.90;;;;;;;7.44;71.51;97177.03;5108590;28;20232;-70
2023/04/29 00:26:02;;;;;;;6.00;5.20;;;;;;;7.56;71.04;97191.28;5108657;28;20219;-70
2023/04/29 00:28:29;;;;;;;7.80;5.53;;;;;;;7.48;70.27;97182.94;5108621;28;20206;-70
2023/04/29 00:30:56;;;;;;;6.93;5.77;;;;;;;7.49;70.35;97185.47;5090433;28;20215;-69
2023/04/29 00:33:25;;;;;;;8.50;5.23;;;;;;;7.53;70.88;97187.03;5090234;28;20199;-70
2023/04/29 00:35:52;;;;;;;6.70;6.00;;;;;;;7.47;71.30;97182.09;5108314;28;20192;-69
2023/04/29 00:38:20;;;;;;;7.47;5.50;;;;;;;7.32;71.33;97192.84;5090475;28;20259;-69
2023/04/29 00:40:47;;;;;;;9.27;5.63;;;;;;;7.17;71.85;97167.59;5108510;28;20484;-68
2023/04/29 00:43:14;;;;;;;6.10;5.33;;;;;;;7.19;71.26;97194.94;5089882;28;20673;-69
2023/04/29 00:45:42;;;;;;;7.13;5.43;;;;;;;7.10;71.32;97190.09;5108289;28;20700;-70
2023/04/29 00:48:09;;;;;;;9.13;5.47;;;;;;;6.96;72.16;97189.66;5108259;28;20202;-68
2023/04/29 00:50:36;;;;;;;9.80;5.53;;;;;;;6.89;72.41;97187.28;5107890;28;20280;-70
2023/04/29 00:53:03;;;;;;;6.87;5.40;;;;;;;6.84;72.87;97184.03;5089845;28;20619;-69
2023/04/29 00:55:32;;;;;;;6.07;5.20;;;;;;;7.13;72.34;97176.28;5089956;28;20180;-70
2023/04/29 00:58:01;;;;;;;9.50;5.33;;;;;;;6.97;72.28;97165.59;5108302;28;20661;-69
2023/04/29 01:00:29;;;;;;;7.43;5.20;;;;;;;6.91;72.40;97170.06;5108041;28;20202;-69
2023/04/29 01:02:58;;;;;;;6.30;5.33;;;;;;;6.87;72.46;97174.47;5108172;28;20182;-69
2023/04/29 01:05:26;;;;;;;8.23;5.70;;;;;;;6.39;74.54;97163.84;5107809;28;20704;-69
2023/04/29 01:08:03;;;;;;;13.47;8.83;;;;;;;6.32;74.29;97159.75;5107749;28;20671;-69
2023/04/29 01:10:51;;;;;;;8.63;7.27;;;;;;;6.24;74.62;97166.84;5107750;28;20228;-69
2023/04/29 01:13:27;;;;;;;8.53;7.00;;;;;;;6.24;75.30;97171.97;5089674;28;20189;-69
2023/04/29 01:15:54;;;;;;;11.10;9.67;;;;;;;6.25;75.03;97165.94;5089638;28;20204;-69
2023/04/29 01:18:26;;;;;;;11.33;8.27;;;;;;;6.07;74.47;97161.28;5089445;28;20188;-67
2023/04/29 01:20:56;;;;;;;9.87;6.73;;;;;;;5.81;76.41;97144.81;5089427;28;20203;-68
2023/04/29 01:23:30;;;;;;;12.07;8.97;;;;;;;5.93;76.10;97158.25;5089265;28;20228;-69
2023/04/29 01:25:58;;;;;;;14.90;11.50;;;;;;;5.92;76.90;97158.25;5089258;28;20193;-68
2023/04/29 01:29:11;;;;;;;9.30;6.30;;;;;;;5.85;76.08;97147.31;5107515;28;20191;-68
2023/04/29 01:31:55;;;;;;;8.60;6.27;;;;;;;5.81;76.81;97145.69;5089321;28;20216;-69
2023/04/29 01:34:35;;;;;;;14.57;10.20;;;;;;;5.73;77.87;97142.44;5089085;28;20565;-69
2023/04/29 01:37:08;;;;;;;13.33;8.47;;;;;;;5.68;77.39;97140.00;5089317;28;20247;-67
2023/04/29 01:39:46;;;;;;;10.53;7.13;;;;;;;5.73;77.36;97139.84;5088935;28;20231;-68
2023/04/29 01:42:44;;;;;;;9.60;7.13;;;;;;;5.71;78.47;97139.06;5088904;28;20195;-68
2023/04/29 01:45:20;;;;;;;11.87;8.77;;;;;;;5.72;77.86;97140.75;5088854;28;20219;-68
2023/04/29 01:47:51;;;;;;;10.10;7.00;;;;;;;5.65;77.66;97124.66;5088966;28;20198;-68
2023/04/29 01:50:20;;;;;;;11.67;7.57;;;;;;;5.52;79.19;97130.13;5089097;28;20225;-67
2023/04/29 01:52:47;;;;;;;11.17;7.77;;;;;;;5.50;78.77;97130.16;5088738;28;20180;-67
2023/04/29 01:55:14;;;;;;;9.17;7.47;;;;;;;5.31;79.25;97130.66;5088436;28;21327;-68
2023/04/29 01:58:00;;;;;;;10.97;6.73;;;;;;;5.25;80.16;97128.22;5088690;28;20185;-67
2023/04/29 02:00:46;;;;;;;10.07;7.13;;;;;;;5.23;80.24;97124.84;5107008;28;20194;-67
2023/04/29 02:03:13;;;;;;;10.67;6.70;;;;;;;5.32;80.33;97129.75;5088601;28;20204;-67
2023/04/29 02:05:44;;;;;;;12.40;7.17;;;;;;;5.51;79.57;97139.56;5088674;28;20196;-67
2023/04/29 02:08:12;;;;;;;12.83;8.27;;;;;;;5.37;79.72;97133.06;5088533;28;20222;-67
2023/04/29 02:10:53;;;;;;;10.13;7.40;;;;;;;5.10;80.04;97134.56;5088560;28;20184;-68
2023/04/29 02:13:41;;;;;;;13.57;7.80;;;;;;;5.06;81.40;97132.09;5106645;28;20195;-70
2023/04/29 02:16:11;;;;;;;10.57;8.17;;;;;;;4.98;80.82;97134.84;5088550;28;20190;-68
2023/04/29 02:18:48;;;;;;;13.53;9.60;;;;;;;4.86;81.27;97125.69;5088708;28;20282;-68
2023/04/29 02:21:15;;;;;;;14.03;8.87;;;;;;;4.88;81.48;97139.31;5106738;28;20682;-70
2023/04/29 02:23:42;;;;;;;45.13;20.30;;;;;;;4.85;81.71;97135.97;5106718;28;20259;-70
2023/04/29 02:26:09;;;;;;;19.57;12.90;;;;;;;4.93;81.00;97137.50;5088340;28;20202;-68
2023/04/29 02:28:36;;;;;;;30.27;16.17;;;;;;;5.02;80.90;97139.03;5105952;28;20242;-67
2023/04/29 02:31:03;;;;;;;14.80;9.23;;;;;;;5.05;80.33;97141.50;5084961;28;20620;-67
2023/04/29 02:33:32;;;;;;;19.60;11.90;;;;;;;5.13;79.95;97142.16;5068448;28;20672;-68
2023/04/29 02:35:59;;;;;;;11.87;7.60;;;;;;;5.17;79.19;97135.28;5086560;28;20212;-67
2023/04/29 02:38:26;;;;;;;8.50;6.40;;;;;;;5.31;79.03;97133.22;5086284;28;20275;-68
2023/04/29 02:40:53;;;;;;;11.37;7.70;;;;;;;5.42;77.71;97110.72;5086282;28;20203;-70
2023/04/29 02:43:21;;;;;;;10.47;6.80;;;;;;;5.62;77.48;97132.44;5086144;28;20711;-68
2023/04/29 02:45:48;;;;;;;12.10;6.67;;;;;;;5.46;77.66;97138.00;5068009;28;20217;-69
2023/04/29 02:48:15;;;;;;;12.20;8.97;;;;;;;5.46;77.27;97130.28;5068370;28;20222;-68
2023/04/29 02:50:43;;;;;;;35.20;15.30;;;;;;;5.42;77.99;97132.06;5068162;28;20220;-69
2023/04/29 02:53:10;;;;;;;41.83;16.47;;;;;;;5.26;78.08;97127.34;5095326;28;20201;-68
2023/04/29 02:55:37;;;;;;;15.07;8.37;;;;;;;5.17;78.65;97128.41;5077537;28;20202;-71
2023/04/29 02:58:08;;;;;;;40.43;17.33;;;;;;;5.07;78.55;97126.09;5087548;28;20221;-70
2023/04/29 03:00:35;;;;;;;18.70;9.60;;;;;;;5.21;78.38;97121.47;5088458;28;20622;-69
2023/04/29 03:03:02;;;;;;;12.53;7.10;;;;;;;5.18;79.05;97122.38;5088415;28;20298;-69
2023/04/29 03:05:30;;;;;;;16.33;8.30;;;;;;;5.43;78.14;97128.63;5073537;28;20228;-69
2023/04/29 03:07:57;;;;;;;8.40;6.53;;;;;;;5.54;77.79;97120.66;5085655;27;20665;-69
2023/04/29 03:10:24;;;;;;;11.23;6.33;;;;;;;5.59;77.15;97124.81;5084808;28;20697;-70
2023/04/29 03:12:51;;;;;;;10.47;6.47;;;;;;;5.56;76.52;97136.88;5071425;28;20750;-69
2023/04/29 03:15:19;;;;;;;14.37;6.17;;;;;;;5.53;76.52;97130.09;5071294;28;20198;-68
2023/04/29 03:17:46;;;;;;;8.30;5.93;;;;;;;5.48;77.19;97142.19;5071655;28;20200;-70
2023/04/29 03:20:13;;;;;;;8.67;6.17;;;;;;;5.19;77.95;97118.09;5071448;28;20216;-71
2023/04/29 03:22:40;;;;;;;8.57;6.17;;;;;;;5.01;79.03;97139.06;5089725;28;20208;-71
2023/04/29 03:25:09;;;;;;;7.87;6.27;;;;;;;4.97;79.38;97123.72;5071531;28;20304;-70
2023/04/29 03:27:38;;;;;;;10.27;6.50;;;;;;;4.95;79.76;97145.16;5071240;28;20200;-69
2023/04/29 03:30:07;;;;;;;12.90;7.47;;;;;;;4.80;80.43;97138.63;5071211;28;20253;-68
2023/04/29 03:32:39;;;;;;;16.10;9.03;;;;;;;4.66;80.46;97142.38;5073737;28;20237;-69
2023/04/29 03:35:06;;;;;;;16.07;9.33;;;;;;;4.72;80.57;97142.25;5089253;28;20583;-68
2023/04/29 03:37:43;;;;;;;20.53;10.77;;;;;;;4.76;80.15;97144.72;5087623;28;20558;-68
2023/04/29 03:40:21;;;;;;;29.10;14.40;;;;;;;4.93;79.93;97150.34;5105047;28;20193;-68
2023/04/29 03:42:50;;;;;;;18.97;10.83;;;;;;;5.31;78.53;97146.06;5082111;28;20199;-71
2023/04/29 03:45:18;;;;;;;22.40;11.47;;;;;;;5.33;78.17;97152.84;5070927;28;20216;-67
2023/04/29 03:47:45;;;;;;;25.30;12.60;;;;;;;5.28;77.73;97153.81;5071038;28;20245;-69
2023/04/29 03:50:12;;;;;;;36.37;16.57;;;;;;;5.43;77.47;97158.59;5104433;28;20244;-69
2023/04/29 03:52:40;;;;;;;32.87;15.73;;;;;;;5.49;77.01;97153.31;5090481;28;20196;-69
2023/04/29 03:55:14;;;;;;;39.50;17.77;;;;;;;5.67;75.34;97158.84;5091244;28;20261;-69
2023/04/29 03:57:42;;;;;;;33.90;16.20;;;;;;;5.92;75.08;97156.53;5091145;28;20187;-69
2023/04/29 04:00:11;;;;;;;34.57;15.97;;;;;;;6.00;74.30;97159.75;5091101;28;20292;-68
2023/04/29 04:02:46;;;;;;;30.40;14.37;;;;;;;6.06;74.75;97169.88;5090812;28;20627;-68
2023/04/29 04:05:14;;;;;;;25.50;13.27;;;;;;;6.20;73.93;97164.38;5108996;28;20217;-68
2023/04/29 04:07:47;;;;;;;22.50;12.50;;;;;;;6.58;72.95;97166.75;5090793;28;20233;-67
2023/04/29 04:10:43;;;;;;;20.27;11.97;;;;;;;6.69;72.25;97169.00;5087077;28;20198;-68
2023/04/29 04:13:29;;;;;;;18.93;11.07;;;;;;;6.72;72.46;97153.50;5108291;28;20672;-68
2023/04/29 04:15:56;;;;;;;19.47;10.90;;;;;;;7.13;70.32;97150.53;5088060;28;20201;-68
2023/04/29 04:18:23;;;;;;;18.37;10.70;;;;;;;7.42;70.10;97162.53;5090519;28;20206;-67
2023/04/29 04:20:50;;;;;;;16.93;10.13;;;;;;;7.21;69.61;97161.47;5108639;28;20194;-68
2023/04/29 04:23:17;;;;;;;15.93;9.37;;;;;;;7.48;68.75;97167.47;5090379;28;20683;-68
2023/04/29 04:25:46;;;;;;;16.53;8.80;;;;;;;7.57;68.27;97165.44;5090109;28;20310;-67
2023/04/29 04:28:33;;;;;;;15.20;9.23;;;;;;;7.83;68.24;97156.88;5107093;28;20198;-67
2023/04/29 04:31:05;;;;;;;17.13;8.70;;;;;;;7.59;68.14;97160.22;5090131;28;20212;-68
2023/04/29 04:33:33;;;;;;;18.30;9.47;;;;;;;7.55;68.98;97159.50;5090286;28;20307;-67
2023/04/29 04:36:00;;;;;;;18.93;9.60;;;;;;;7.88;68.08;97145.50;5090143;28;20200;-67
2023/04/29 04:38:27;;;;;;;17.97;10.00;;;;;;;8.20;67.44;97147.81;5090304;28;20663;-67
2023/04/29 04:40:55;;;;;;;15.87;9.33;;;;;;;8.17;67.05;97140.22;5090802;28;20203;-68
2023/04/29 04:43:32;;;;;;;18.53;10.13;;;;;;;8.42;66.63;97144.53;5090721;28;20192;-68
2023/04/29 04:46:09;;;;;;;19.33;11.00;;;;;;;8.40;66.58;97136.00;5090133;28;20223;-69
2023/04/29 04:48:38;;;;;;;24.20;11.90;;;;;;;8.83;66.36;97146.44;5090052;28;20202;-69
2023/04/29 04:51:12;;;;;;;20.30;10.47;;;;;;;9.08;65.96;97149.81;5090730;28;20299;-69
2023/04/29 04:53:39;;;;;;;23.47;10.67;;;;;;;8.99;65.46;97152.72;5090167;28;20594;-71
2023/04/29 04:56:11;;;;;;;19.30;10.60;;;;;;;9.13;65.65;97137.53;5089732;28;20202;-69
2023/04/29 04:58:38;;;;;;;21.87;12.77;;;;;;;9.11;65.80;97157.41;5089743;28;20690;-69
2023/04/29 05:01:05;;;;;;;25.80;12.43;;;;;;;9.24;65.85;97155.22;5089537;28;20184;-68
2023/04/29 05:03:33;;;;;;;24.40;12.47;;;;;;;9.28;65.11;97161.94;5089442;28;20205;-67
2023/04/29 05:06:00;;;;;;;24.80;12.77;;;;;;;9.27;64.42;97147.34;5089169;28;20991;-69
2023/04/29 05:08:29;;;;;;;22.50;12.53;;;;;;;9.44;64.12;97155.25;5089557;28;20287;-68
2023/04/29 05:10:58;;;;;;;24.10;12.87;;;;;;;9.76;64.15;97153.09;5089321;28;20196;-68
2023/04/29 05:13:26;;;;;;;22.60;11.37;;;;;;;9.83;64.18;97159.69;5089074;28;20656;-70
2023/04/29 05:15:54;;;;;;;20.97;12.77;;;;;;;10.10;63.07;97167.25;5089255;28;20187;-67
2023/04/29 05:18:25;;;;;;;24.90;13.07;;;;;;;10.54;62.44;97166.19;5089168;28;20838;-71
2023/04/29 05:20:52;;;;;;;24.27;13.77;;;;;;;10.60;61.10;97168.53;5072436;28;20196;-68
2023/04/29 05:23:19;;;;;;;30.20;15.13;;;;;;;10.98;61.39;97152.13;5089145;28;20683;-68
2023/04/29 05:25:46;;;;;;;27.63;13.90;;;;;;;11.03;59.46;97147.56;5089154;28;20209;-67
2023/04/29 05:28:15;;;;;;;22.03;12.77;;;;;;;10.96;59.09;97150.50;5088458;28;20751;-69
2023/04/29 05:30:44;;;;;;;23.73;13.73;;;;;;;10.98;59.70;97156.47;5088978;28;20580;-68
2023/04/29 05:33:11;;;;;;;30.47;15.10;;;;;;;10.54;60.05;97153.25;5088910;28;20604;-68
2023/04/29 05:35:42;;;;;;;26.37;13.20;;;;;;;10.77;60.39;97160.00;5071963;28;20299;-69
2023/04/29 05:38:09;;;;;;;27.27;14.17;;;;;;;10.77;60.47;97140.13;5088959;28;20271;-66
2023/04/29 05:40:39;;;;;;;25.23;13.47;;;;;;;10.56;60.85;97161.78;5088789;28;20540;-69
2023/04/29 05:43:32;;;;;;;26.07;15.93;;;;;;;10.79;60.32;97147.81;5088544;28;20197;-67
2023/04/29 05:45:59;;;;;;;31.17;14.53;;;;;;;10.98;60.23;97144.34;5088615;28;20232;-68
2023/04/29 05:48:28;;;;;;;31.90;15.47;;;;;;;11.26;59.12;97136.97;5106734;28;20695;-69
2023/04/29 05:50:55;;;;;;;29.73;17.67;;;;;;;11.27;59.19;97136.03;5088271;28;20687;-69
2023/04/29 05:53:22;;;;;;;30.97;16.47;;;;;;;11.48;58.88;97140.22;5088384;28;20213;-68
2023/04/29 05:55:49;;;;;;;32.13;16.23;;;;;;;10.76;58.87;97041.78;5088395;28;20588;-74
2023/04/29 05:58:19;;;;;;;27.57;14.77;;;;;;;11.46;57.78;97139.47;5072211;28;20566;-68
2023/04/29 06:00:48;;;;;;;22.80;13.40;;;;;;;11.55;57.68;97137.34;5088315;28;20190;-69
2023/04/29 06:03:20;;;;;;;24.30;13.70;;;;;;;11.61;58.30;97153.44;5088422;28;20197;-70
2023/04/29 06:05:54;;;;;;;24.10;12.60;;;;;;;11.39;59.90;97145.00;5087947;28;20301;-69
2023/04/29 06:08:59;;;;;;;20.80;12.07;;;;;;;11.25;60.31;97145.66;5106139;28;20198;-68
2023/04/29 06:11:28;;;;;;;20.23;10.67;;;;;;;11.09;61.80;97139.50;5106664;28;20568;-69
2023/04/29 06:13:56;;;;;;;15.23;9.73;;;;;;;11.17;61.00;97119.25;5106644;28;20224;-68
2023/04/29 06:16:23;;;;;;;15.47;9.47;;;;;;;11.55;60.99;97148.56;5071298;28;20629;-69
2023/04/29 06:18:51;;;;;;;17.33;8.93;;;;;;;11.45;61.23;97142.13;5087747;28;20262;-69
2023/04/29 06:21:18;;;;;;;15.50;9.07;;;;;;;10.77;62.55;97127.19;5106249;28;20249;-67
2023/04/29 06:23:45;;;;;;;13.33;8.53;;;;;;;10.97;62.79;97132.28;5087802;28;20564;-69
2023/04/29 06:26:16;;;;;;;16.10;9.83;;;;;;;11.05;63.21;97130.19;5087885;28;20231;-67
2023/04/29 06:28:44;;;;;;;16.83;10.07;;;;;;;11.29;61.72;97128.22;5088337;28;20202;-68
2023/04/29 06:31:11;;;;;;;18.40;10.20;;;;;;;11.27;61.51;97120.50;5087826;28;20188;-67
2023/04/29 06:33:41;;;;;;;16.23;9.37;;;;;;;11.28;61.14;97121.34;5087702;28;20202;-68
2023/04/29 06:36:08;;;;;;;19.03;9.60;;;;;;;11.41;60.65;97122.44;5087864;28;20245;-69
2023/04/29 06:39:04;;;;;;;21.13;11.30;;;;;;;11.55;61.30;97129.56;5050581;28;20200;-68
2023/04/29 06:41:52;;;;;;;17.63;10.80;;;;;;;11.51;59.90;97082.19;5092497;28;20748;-68
2023/04/29 06:44:33;;;;;;;20.53;10.90;;;;;;;11.80;59.15;97096.34;5091639;28;20225;-69
2023/04/29 06:47:17;;;;;;;10.17;7.33;;;;;;;12.30;57.16;97097.25;5091727;28;20197;-68
2023/04/29 06:49:57;;;;;;;13.13;6.87;;;;;;;12.60;55.04;97095.63;5091839;28;20227;-69
2023/04/29 06:52:24;;;;;;;14.73;8.80;;;;;;;12.46;55.71;97071.28;5074884;28;20204;-69
2023/04/29 06:54:51;;;;;;;17.47;9.43;;;;;;;12.68;55.44;97110.81;5109703;28;20289;-67
2023/04/29 06:57:19;;;;;;;12.90;8.00;;;;;;;12.78;55.09;97097.25;5091500;28;20689;-69
2023/04/29 06:59:47;;;;;;;12.20;7.10;;;;;;;12.75;54.60;97092.22;5091043;28;20187;-72
2023/04/29 07:02:15;;;;;;;13.77;7.60;;;;;;;12.92;54.51;97094.72;5109514;28;20642;-68
2023/04/29 07:04:42;;;;;;;9.73;6.60;;;;;;;13.08;52.48;97092.19;5109409;28;20221;-69
2023/04/29 07:07:09;;;;;;;8.73;6.07;;;;;;;13.40;50.84;97090.38;5091441;28;20183;-70
2023/04/29 07:09:36;;;;;;;7.53;5.43;;;;;;;13.41;51.03;97086.88;5109507;28;20243;-68
2023/04/29 07:12:04;;;;;;;11.57;5.77;;;;;;;13.73;49.33;97096.28;5110064;28;20207;-68
2023/04/29 07:14:31;;;;;;;8.33;5.77;;;;;;;13.85;48.59;97087.78;5090955;28;20206;-67
2023/04/29 07:16:58;;;;;;;6.80;4.87;;;;;;;13.98;47.97;97078.31;5109610;28;20191;-68
2023/04/29 07:19:25;;;;;;;11.47;8.23;;;;;;;14.49;46.76;97092.66;5109429;28;20199;-69
2023/04/29 07:21:53;;;;;;;10.23;5.40;;;;;;;14.48;47.95;97089.22;5090935;28;20218;-66
2023/04/29 07:24:21;;;;;;;8.07;4.47;;;;;;;14.47;47.00;97097.97;5090953;28;20183;-67
2023/04/29 07:26:49;;;;;;;7.27;5.63;;;;;;;14.50;46.92;97089.13;5091133;28;20279;-67
2023/04/29 07:29:16;;;;;;;8.23;4.10;;;;;;;14.39;47.45;97087.16;5090932;28;20744;-70
2023/04/29 07:31:44;;;;;;;7.63;4.80;;;;;;;14.31;47.71;97071.16;5090758;28;20203;-69
2023/04/29 07:34:12;;;;;;;7.10;4.30;;;;;;;14.35;47.98;97090.03;5073930;28;20646;-69
2023/04/29 07:36:39;;;;;;;7.20;4.27;;;;;;;14.22;48.12;97070.84;5090556;28;20191;-69
2023/04/29 07:39:06;;;;;;;5.97;4.00;;;;;;;13.61;48.30;97055.34;5073860;28;20203;-70
2023/04/29 07:41:34;;;;;;;6.43;4.23;;;;;;;14.17;48.06;97071.13;5073699;28;20200;-68
2023/04/29 07:44:01;;;;;;;6.03;3.60;;;;;;;14.21;47.90;97064.78;5090620;28;20280;-69
2023/04/29 07:46:30;;;;;;;7.47;4.20;;;;;;;14.22;47.43;97074.28;5090692;28;20223;-69
2023/04/29 07:48:57;;;;;;;6.13;4.20;;;;;;;14.47;47.67;97066.69;5090234;28;20223;-71
2023/04/29 07:51:27;;;;;;;6.77;4.00;;;;;;;14.78;47.37;97076.06;5089204;28;20199;-69
2023/04/29 07:53:55;;;;;;;5.53;3.80;;;;;;;14.82;46.47;97066.31;5108599;28;20210;-68
2023/04/29 07:56:22;;;;;;;5.60;4.07;;;;;;;14.86;46.49;97062.59;5108438;28;20188;-67
2023/04/29 07:58:50;;;;;;;7.23;3.57;;;;;;;14.97;45.28;97037.50;5090591;28;20195;-70
2023/04/29 08:01:17;;;;;;;7.03;4.10;;;;;;;15.45;44.66;97047.44;5073904;28;20184;-68
2023/04/29 08:03:45;;;;;;;7.30;4.30;;;;;;;15.54;44.43;97051.22;5090591;28;20194;-70
2023/04/29 08:06:15;;;;;;;6.60;3.27;;;;;;;15.85;43.70;97050.88;5073488;28;20752;-69
2023/04/29 08:08:42;;;;;;;7.20;4.03;;;;;;;15.75;43.57;97048.97;5089667;28;20275;-69
2023/04/29 08:11:15;;;;;;;7.17;3.23;;;;;;;15.18;43.47;96990.94;5089818;28;20575;-67
2023/04/29 08:13:42;;;;;;;7.40;3.70;;;;;;;15.70;44.03;97038.84;5089797;28;20200;-68
2023/04/29 08:16:10;;;;;;;7.50;3.87;;;;;;;15.83;43.69;97016.19;5108569;28;20208;-67
2023/04/29 08:18:38;;;;;;;5.40;3.53;;;;;;;16.07;43.13;97030.19;5072874;28;20196;-70
2023/04/29 08:21:06;;;;;;;6.93;4.27;;;;;;;16.10;42.66;97027.38;5089992;28;20233;-71
2023/04/29 08:23:34;;;;;;;8.80;4.73;;;;;;;15.92;42.78;97004.28;5089667;28;20199;-67
2023/04/29 08:26:02;;;;;;;6.00;3.50;;;;;;;15.92;43.12;97015.56;5107774;28;20299;-68
2023/04/29 08:28:29;;;;;;;5.67;3.10;;;;;;;16.31;42.48;97025.09;5107889;28;20229;-69
2023/04/29 08:30:56;;;;;;;7.53;4.27;;;;;;;16.44;40.56;97012.84;5107507;28;20203;-68
2023/04/29 08:33:23;;;;;;;6.60;3.67;;;;;;;16.37;40.30;97005.53;5072209;28;20199;-71
2023/04/29 08:35:58;;;;;;;8.53;4.17;;;;;;;16.27;41.21;97000.94;5107897;28;20212;-68
2023/04/29 08:38:25;;;;;;;4.70;3.17;;;;;;;16.14;40.37;97002.72;5107711;28;20749;-69
2023/04/29 08:40:52;;;;;;;7.10;3.33;;;;;;;15.99;39.13;96998.53;5107821;28;20210;-70
2023/04/29 08:43:19;;;;;;;4.97;3.40;;;;;;;16.27;39.40;97003.56;5088862;28;20210;-68
2023/04/29 08:45:48;;;;;;;8.13;3.83;;;;;;;16.39;39.15;96998.41;5107169;28;20388;-68
2023/04/29 08:48:16;;;;;;;7.90;3.57;;;;;;;16.63;39.28;97001.97;5107297;28;20188;-68
2023/04/29 08:50:44;;;;;;;7.73;3.20;;;;;;;16.88;39.33;96994.03;5107176;28;20285;-69
2023/04/29 08:53:13;;;;;;;8.03;4.17;;;;;;;16.91;39.72;96986.00;5089091;28;20203;-68
2023/04/29 08:55:45;;;;;;;5.77;3.50;;;;;;;16.76;39.75;96994.94;5089085;28;20209;-69
2023/04/29 08:58:15;;;;;;;6.13;3.90;;;;;;;16.64;40.65;96987.94;5107054;28;20203;-69
2023/04/29 09:00:43;;;;;;;6.47;3.60;;;;;;;16.76;40.25;96987.91;5106875;28;20192;-69
2023/04/29 09:03:28;;;;;;;10.73;3.97;;;;;;;17.12;39.50;96994.06;5106772;28;20237;-70
2023/04/29 09:05:59;;;;;;;5.47;3.33;;;;;;;17.13;39.31;96991.34;5106604;28;20229;-67
2023/04/29 09:08:27;;;;;;;4.87;3.47;;;;;;;17.11;39.50;96988.00;5088365;28;20681;-66
2023/04/29 09:10:55;;;;;;;6.10;3.07;;;;;;;16.92;39.46;96969.34;5088710;28;20220;-68
2023/04/29 09:13:31;;;;;;;5.70;3.10;;;;;;;16.81;39.38;96974.53;5106769;28;20207;-68
2023/04/29 09:15:59;;;;;;;5.17;3.00;;;;;;;16.77;39.67;96980.91;5088474;28;20203;-68
2023/04/29 09:19:24;;;;;;;3.53;3.13;;;;;;;16.28;39.60;96965.19;5106881;28;20697;-68
2023/04/29 09:22:45;;;;;;;5.33;3.17;;;;;;;16.76;39.08;96964.38;5106163;28;20189;-69
2023/04/29 09:26:15;;;;;;;6.13;2.73;;;;;;;16.98;38.60;96969.72;5106424;28;20216;-68
2023/04/29 09:29:45;;;;;;;4.13;2.70;;;;;;;16.77;39.43;96953.00;5105856;28;20192;-69
2023/04/29 09:33:06;;;;;;;4.40;2.90;;;;;;;16.97;38.83;96952.38;5105929;28;20195;-69
2023/04/29 09:36:26;;;;;;;5.90;3.70;;;;;;;17.23;38.88;96939.19;5105673;28;20188;-68
2023/04/29 09:39:47;;;;;;;3.63;2.73;;;;;;;17.22;38.46;96942.72;5087937;28;20367;-67
2023/04/29 09:43:10;;;;;;;5.57;2.80;;;;;;;17.16;37.78;96923.09;5088021;28;20203;-69
2023/04/29 09:46:33;;;;;;;7.33;3.40;;;;;;;17.48;37.91;96918.91;5105470;28;20221;-69
2023/04/29 09:50:06;;;;;;;4.27;2.73;;;;;;;17.50;37.07;96926.66;5105578;28;20229;-68
2023/04/29 09:53:26;;;;;;;7.40;3.80;;;;;;;17.49;37.34;96917.13;5105587;28;20584;-69
2023/04/29 09:56:47;;;;;;;4.57;2.73;;;;;;;17.78;36.62;96911.38;5105860;28;20197;-70
2023/04/29 10:00:08;;;;;;;6.33;3.10;;;;;;;17.97;35.74;96899.50;5105558;28;20193;-68
2023/04/29 10:03:29;;;;;;;8.50;2.90;;;;;;;18.13;35.44;96889.47;5105236;28;20221;-69
2023/04/29 10:06:50;;;;;;;3.80;2.73;;;;;;;18.13;35.72;96892.09;5105299;28;20222;-70
2023/04/29 10:10:12;;;;;;;6.40;2.90;;;;;;;18.43;35.87;96893.19;5104769;28;20746;-69
2023/04/29 10:13:33;;;;;;;5.43;3.00;;;;;;;18.10;35.43;96889.72;5086947;28;20659;-68
2023/04/29 10:16:26;;;;;;;5.63;2.53;;;;;;;18.39;35.44;96872.53;5104925;28;20190;-67
2023/04/29 10:19:53;;;;;;;6.27;2.90;;;;;;;18.38;34.64;96879.53;5105544;28;20737;-69
2023/04/29 10:23:29;;;;;;;4.87;2.80;;;;;;;18.52;34.16;96881.13;5105355;28;20255;-68
2023/04/29 10:26:50;;;;;;;4.17;2.43;;;;;;;18.73;34.24;96879.41;5089181;28;20269;-68
2023/04/29 10:30:10;;;;;;;5.83;3.03;;;;;;;18.76;34.23;96868.66;5104676;28;20192;-68
2023/04/29 10:33:32;;;;;;;6.43;3.20;;;;;;;18.40;33.16;96834.88;5105242;28;21049;-68
2023/04/29 10:36:53;;;;;;;3.40;2.70;;;;;;;18.37;34.13;96856.06;5104858;28;20282;-68
2023/04/29 10:40:29;;;;;;;3.80;3.10;;;;;;;18.50;34.50;96870.75;5105312;28;20194;-67
2023/04/29 10:43:50;;;;;;;4.40;2.90;;;;;;;18.46;34.18;96871.97;5104994;28;20468;-69
2023/04/29 10:47:10;;;;;;;5.43;2.70;;;;;;;18.50;33.96;96867.31;5103922;28;20233;-68
2023/04/29 10:50:44;;;;;;;6.07;3.20;;;;;;;18.80;33.39;96856.94;5105012;28;20230;-69
2023/04/29 10:54:16;;;;;;;4.23;2.83;;;;;;;18.75;33.12;96853.88;5104989;28;20193;-67
2023/04/29 10:57:41;;;;;;;3.80;2.50;;;;;;;18.97;33.16;96861.66;5105306;28;20285;-70
2023/04/29 11:01:09;;;;;;;3.03;2.70;;;;;;;19.17;32.83;96858.22;5105184;28;20187;-69
2023/04/29 11:04:33;;;;;;;5.27;2.60;;;;;;;19.55;32.87;96852.44;5104597;28;20274;-70
2023/04/29 11:08:05;;;;;;;4.70;2.70;;;;;;;19.48;32.83;96852.09;5086612;28;20219;-71
2023/04/29 11:11:27;;;;;;;4.17;2.50;;;;;;;19.27;32.88;96851.25;5105034;28;20290;-67
2023/04/29 11:14:30;;;;;;;2.67;2.27;;;;;;;19.14;33.09;96853.25;5104708;28;20192;-70
2023/04/29 11:17:54;;;;;;;4.17;2.80;;;;;;;19.32;32.93;96851.69;5104628;28;20235;-69
2023/04/29 11:21:07;;;;;;;3.83;2.77;;;;;;;19.11;33.46;96837.72;5104920;28;20287;-69
2023/04/29 11:24:27;;;;;;;6.20;3.63;;;;;;;19.46;32.67;96840.91;5104926;28;20295;-68
2023/04/29 11:27:51;;;;;;;4.50;3.10;;;;;;;19.61;32.24;96832.69;5106638;28;20334;-67
2023/04/29 11:31:12;;;;;;;4.37;2.63;;;;;;;19.24;32.66;96824.41;5108632;28;20307;-68
2023/04/29 11:34:32;;;;;;;7.10;2.80;;;;;;;19.57;32.66;96831.28;5108466;28;20211;-67
2023/04/29 11:37:53;;;;;;;3.53;2.77;;;;;;;19.98;31.80;96833.81;5108344;28;20206;-68
2023/04/29 11:41:14;;;;;;;5.60;2.57;;;;;;;19.94;32.02;96829.78;5108001;28;20217;-70
2023/04/29 11:44:35;;;;;;;6.37;2.57;;;;;;;20.22;31.84;96821.19;5108403;28;20275;-70
2023/04/29 11:47:56;;;;;;;5.30;2.70;;;;;;;20.11;31.71;96816.03;5108147;28;20248;-69
2023/04/29 11:51:16;;;;;;;2.53;2.00;;;;;;;19.82;31.31;96812.47;5107745;28;20706;-70
2023/04/29 11:54:37;;;;;;;6.80;3.40;;;;;;;19.85;31.97;96809.53;5107885;28;20215;-68
2023/04/29 11:57:58;;;;;;;5.40;3.20;;;;;;;20.05;31.48;96798.16;5108330;28;20184;-69
2023/04/29 12:01:19;;;;;;;4.87;3.10;;;;;;;20.12;30.98;96788.75;5107865;28;20248;-69
2023/04/29 12:04:40;;;;;;;3.63;2.20;;;;;;;20.02;30.72;96778.22;5107902;28;20187;-72
2023/04/29 12:08:01;;;;;;;5.23;2.60;;;;;;;19.85;31.62;96773.59;5107833;28;20215;-69
2023/04/29 12:11:23;;;;;;;3.67;2.40;;;;;;;19.79;31.27;96771.50;5107749;28;20769;-68
2023/04/29 12:14:44;;;;;;;4.60;3.23;;;;;;;20.12;31.54;96780.84;5107972;28;20228;-69
2023/04/29 12:18:05;;;;;;;4.03;3.03;;;;;;;19.68;32.37;96779.47;5107825;28;20192;-67
2023/04/29 12:21:28;;;;;;;3.80;2.50;;;;;;;19.98;32.30;96765.47;5108162;28;20196;-67
2023/04/29 12:24:49;;;;;;;3.73;2.40;;;;;;;20.03;31.16;96771.16;5107372;28;20612;-68
2023/04/29 12:28:10;;;;;;;3.57;2.60;;;;;;;20.35;30.77;96753.41;5107853;28;20257;-66
2023/04/29 12:31:31;;;;;;;5.47;2.50;;;;;;;20.26;29.65;96754.19;5107316;28;20188;-68
2023/04/29 12:34:52;;;;;;;3.70;2.37;;;;;;;20.38;28.48;96752.31;5107189;28;20282;-69
2023/04/29 12:38:13;;;;;;;4.43;2.10;;;;;;;20.13;28.66;96748.34;5107156;28;20198;-68